sensor_id;sensor_type;location;lat;lon;timestamp;P1;durP1;ratioP1;P2;durP2;ratioP2
75098;SDS011;63685;47.374;8.498;2022-11-15T00:02:06;4.22;;;1.75;;
75098;SDS011;63685;47.374;8.498;2022-11-15T00:04:32;4.07;;;1.85;;
75098;SDS011;63685;47.374;8.498;2022-11-15T00:06:58;3.97;;;1.60;;
75098;SDS011;63685;47.374;8.498;2022-11-15T00:09:23;4.70;;;2.00;;
75098;SDS011;63685;47.374;8.498;2022-11-15T00:11:49;6.30;;;1.70;;
75098;SDS011;63685;47.374;8.498;2022-11-15T00:14:16;3.08;;;1.80;;
75098;SDS011;63685;47.374;8.498;2022-11-15T00:16:42;4.38;;;1.83;;
75098;SDS011;63685;47.374;8.498;2022-11-15T00:19:07;4.90;;;1.65;;
75098;SDS011;63685;47.374;8.498;2022-11-15T00:21:33;3.58;;;1.80;;
75098;SDS011;63685;47.374;8.498;2022-11-15T00:23:58;3.95;;;1.65;;
75098;SDS011;63685;47.374;8.498;2022-11-15T00:26:24;3.50;;;1.63;;
75098;SDS011;63685;47.374;8.498;2022-11-15T00:28:51;3.92;;;1.73;;
75098;SDS011;63685;47.374;8.498;2022-11-15T00:31:17;4.57;;;1.90;;
75098;SDS011;63685;47.374;8.498;2022-11-15T00:33:43;3.85;;;1.70;;
75098;SDS011;63685;47.374;8.498;2022-11-15T00:36:09;4.70;;;1.60;;
75098;SDS011;63685;47.374;8.498;2022-11-15T00:38:36;3.33;;;1.50;;
75098;SDS011;63685;47.374;8.498;2022-11-15T00:41:03;3.33;;;1.98;;
75098;SDS011;63685;47.374;8.498;2022-11-15T00:43:30;3.75;;;1.75;;
75098;SDS011;63685;47.374;8.498;2022-11-15T00:45:56;4.03;;;2.03;;
75098;SDS011;63685;47.374;8.498;2022-11-15T00:48:22;3.97;;;1.85;;
75098;SDS011;63685;47.374;8.498;2022-11-15T00:50:48;4.20;;;1.60;;
75098;SDS011;63685;47.374;8.498;2022-11-15T00:53:14;4.03;;;1.60;;
75098;SDS011;63685;47.374;8.498;2022-11-15T00:55:40;4.80;;;1.45;;
75098;SDS011;63685;47.374;8.498;2022-11-15T00:58:06;4.05;;;1.90;;
75098;SDS011;63685;47.374;8.498;2022-11-15T01:00:31;3.17;;;1.60;;
75098;SDS011;63685;47.374;8.498;2022-11-15T01:02:57;5.43;;;1.80;;
75098;SDS011;63685;47.374;8.498;2022-11-15T01:05:23;9.10;;;1.90;;
75098;SDS011;63685;47.374;8.498;2022-11-15T01:07:52;5.03;;;2.10;;
75098;SDS011;63685;47.374;8.498;2022-11-15T01:10:19;6.28;;;1.80;;
75098;SDS011;63685;47.374;8.498;2022-11-15T01:12:44;4.15;;;1.70;;
75098;SDS011;63685;47.374;8.498;2022-11-15T01:15:10;9.10;;;1.75;;
75098;SDS011;63685;47.374;8.498;2022-11-15T01:17:35;4.63;;;1.50;;
75098;SDS011;63685;47.374;8.498;2022-11-15T01:20:01;3.53;;;1.55;;
75098;SDS011;63685;47.374;8.498;2022-11-15T01:22:27;2.70;;;1.48;;
75098;SDS011;63685;47.374;8.498;2022-11-15T01:24:53;4.63;;;1.90;;
75098;SDS011;63685;47.374;8.498;2022-11-15T01:27:18;4.32;;;1.58;;
75098;SDS011;63685;47.374;8.498;2022-11-15T01:29:44;4.47;;;2.15;;
75098;SDS011;63685;47.374;8.498;2022-11-15T01:32:09;3.10;;;1.60;;
75098;SDS011;63685;47.374;8.498;2022-11-15T01:34:35;5.97;;;1.50;;
75098;SDS011;63685;47.374;8.498;2022-11-15T01:37:01;4.47;;;1.63;;
75098;SDS011;63685;47.374;8.498;2022-11-15T01:39:26;3.83;;;1.50;;
75098;SDS011;63685;47.374;8.498;2022-11-15T01:41:52;5.53;;;1.75;;
75098;SDS011;63685;47.374;8.498;2022-11-15T01:46:59;3.30;;;2.00;;
75098;SDS011;63685;47.374;8.498;2022-11-15T01:49:32;5.55;;;1.70;;
75098;SDS011;63685;47.374;8.498;2022-11-15T01:52:00;4.30;;;1.63;;
75098;SDS011;63685;47.374;8.498;2022-11-15T01:54:28;3.42;;;1.75;;
75098;SDS011;63685;47.374;8.498;2022-11-15T01:56:59;2.90;;;1.67;;
75098;SDS011;63685;47.374;8.498;2022-11-15T01:59:30;4.45;;;1.70;;
75098;SDS011;63685;47.374;8.498;2022-11-15T02:01:56;3.60;;;1.73;;
75098;SDS011;63685;47.374;8.498;2022-11-15T02:04:29;4.07;;;1.73;;
75098;SDS011;63685;47.374;8.498;2022-11-15T02:06:57;5.65;;;1.80;;
75098;SDS011;63685;47.374;8.498;2022-11-15T02:09:24;5.35;;;1.75;;
75098;SDS011;63685;47.374;8.498;2022-11-15T02:11:50;4.32;;;1.60;;
75098;SDS011;63685;47.374;8.498;2022-11-15T02:14:18;5.68;;;1.80;;
75098;SDS011;63685;47.374;8.498;2022-11-15T02:22:37;3.42;;;1.63;;
75098;SDS011;63685;47.374;8.498;2022-11-15T02:25:34;4.13;;;1.88;;
75098;SDS011;63685;47.374;8.498;2022-11-15T02:31:11;7.28;;;1.80;;
75098;SDS011;63685;47.374;8.498;2022-11-15T02:36:32;3.22;;;1.73;;
75098;SDS011;63685;47.374;8.498;2022-11-15T02:39:03;3.63;;;1.38;;
75098;SDS011;63685;47.374;8.498;2022-11-15T02:47:07;4.80;;;1.75;;
75098;SDS011;63685;47.374;8.498;2022-11-15T02:49:56;4.80;;;1.70;;
75098;SDS011;63685;47.374;8.498;2022-11-15T02:52:24;4.47;;;1.73;;
75098;SDS011;63685;47.374;8.498;2022-11-15T02:54:53;3.00;;;1.50;;
75098;SDS011;63685;47.374;8.498;2022-11-15T02:57:20;4.10;;;1.90;;
75098;SDS011;63685;47.374;8.498;2022-11-15T03:00:10;4.47;;;1.60;;
75098;SDS011;63685;47.374;8.498;2022-11-15T03:13:39;2.95;;;1.33;;
75098;SDS011;63685;47.374;8.498;2022-11-15T03:16:13;4.13;;;1.50;;
75098;SDS011;63685;47.374;8.498;2022-11-15T03:18:45;4.28;;;1.50;;
75098;SDS011;63685;47.374;8.498;2022-11-15T03:21:18;7.60;;;1.70;;
75098;SDS011;63685;47.374;8.498;2022-11-15T03:23:46;4.55;;;1.88;;
75098;SDS011;63685;47.374;8.498;2022-11-15T03:26:13;4.88;;;1.75;;
75098;SDS011;63685;47.374;8.498;2022-11-15T03:28:52;5.85;;;1.75;;
75098;SDS011;63685;47.374;8.498;2022-11-15T03:31:21;5.00;;;1.55;;
75098;SDS011;63685;47.374;8.498;2022-11-15T03:34:10;4.35;;;1.85;;
75098;SDS011;63685;47.374;8.498;2022-11-15T03:36:51;3.25;;;1.45;;
75098;SDS011;63685;47.374;8.498;2022-11-15T03:39:17;4.00;;;1.52;;
75098;SDS011;63685;47.374;8.498;2022-11-15T03:41:48;3.92;;;1.48;;
75098;SDS011;63685;47.374;8.498;2022-11-15T03:46:56;5.68;;;1.70;;
75098;SDS011;63685;47.374;8.498;2022-11-15T03:49:44;3.95;;;1.85;;
75098;SDS011;63685;47.374;8.498;2022-11-15T03:52:14;5.85;;;1.70;;
75098;SDS011;63685;47.374;8.498;2022-11-15T03:54:53;5.53;;;1.60;;
75098;SDS011;63685;47.374;8.498;2022-11-15T03:57:20;3.63;;;1.45;;
75098;SDS011;63685;47.374;8.498;2022-11-15T03:59:46;5.38;;;1.60;;
75098;SDS011;63685;47.374;8.498;2022-11-15T04:02:12;4.05;;;1.60;;
75098;SDS011;63685;47.374;8.498;2022-11-15T04:04:38;2.55;;;1.50;;
75098;SDS011;63685;47.374;8.498;2022-11-15T04:07:04;3.22;;;1.30;;
75098;SDS011;63685;47.374;8.498;2022-11-15T04:09:30;3.50;;;1.38;;
75098;SDS011;63685;47.374;8.498;2022-11-15T04:11:55;3.08;;;1.35;;
75098;SDS011;63685;47.374;8.498;2022-11-15T04:14:21;3.95;;;1.77;;
75098;SDS011;63685;47.374;8.498;2022-11-15T04:16:47;3.58;;;1.40;;
75098;SDS011;63685;47.374;8.498;2022-11-15T04:19:12;4.25;;;1.40;;
75098;SDS011;63685;47.374;8.498;2022-11-15T04:21:56;3.28;;;1.50;;
75098;SDS011;63685;47.374;8.498;2022-11-15T04:24:40;3.78;;;1.67;;
75098;SDS011;63685;47.374;8.498;2022-11-15T04:27:06;4.82;;;1.38;;
75098;SDS011;63685;47.374;8.498;2022-11-15T04:29:31;9.75;;;2.00;;
75098;SDS011;63685;47.374;8.498;2022-11-15T04:32:03;5.03;;;1.73;;
75098;SDS011;63685;47.374;8.498;2022-11-15T04:34:29;5.18;;;1.42;;
75098;SDS011;63685;47.374;8.498;2022-11-15T04:36:55;5.13;;;1.77;;
75098;SDS011;63685;47.374;8.498;2022-11-15T04:39:41;4.25;;;1.50;;
75098;SDS011;63685;47.374;8.498;2022-11-15T04:42:07;7.22;;;1.65;;
75098;SDS011;63685;47.374;8.498;2022-11-15T04:44:33;3.60;;;1.55;;
75098;SDS011;63685;47.374;8.498;2022-11-15T04:46:59;5.40;;;1.50;;
75098;SDS011;63685;47.374;8.498;2022-11-15T04:49:24;6.38;;;1.80;;
75098;SDS011;63685;47.374;8.498;2022-11-15T04:51:50;6.70;;;1.40;;
75098;SDS011;63685;47.374;8.498;2022-11-15T04:54:15;7.13;;;1.70;;
75098;SDS011;63685;47.374;8.498;2022-11-15T04:56:41;4.30;;;1.52;;
75098;SDS011;63685;47.374;8.498;2022-11-15T04:59:07;6.38;;;1.48;;
75098;SDS011;63685;47.374;8.498;2022-11-15T05:01:33;6.20;;;1.95;;
75098;SDS011;63685;47.374;8.498;2022-11-15T05:03:58;4.50;;;1.60;;
75098;SDS011;63685;47.374;8.498;2022-11-15T05:06:43;6.43;;;1.85;;
75098;SDS011;63685;47.374;8.498;2022-11-15T05:09:08;5.13;;;1.63;;
75098;SDS011;63685;47.374;8.498;2022-11-15T05:11:34;3.92;;;1.30;;
75098;SDS011;63685;47.374;8.498;2022-11-15T05:13:59;3.33;;;1.35;;
75098;SDS011;63685;47.374;8.498;2022-11-15T05:16:25;7.32;;;1.70;;
75098;SDS011;63685;47.374;8.498;2022-11-15T05:18:51;5.00;;;1.70;;
75098;SDS011;63685;47.374;8.498;2022-11-15T05:21:17;3.03;;;1.60;;
75098;SDS011;63685;47.374;8.498;2022-11-15T05:23:43;4.55;;;1.67;;
75098;SDS011;63685;47.374;8.498;2022-11-15T05:26:08;8.15;;;2.03;;
75098;SDS011;63685;47.374;8.498;2022-11-15T05:28:34;4.22;;;1.48;;
75098;SDS011;63685;47.374;8.498;2022-11-15T05:31:01;4.70;;;1.30;;
75098;SDS011;63685;47.374;8.498;2022-11-15T05:33:27;5.95;;;1.85;;
75098;SDS011;63685;47.374;8.498;2022-11-15T05:35:57;4.40;;;1.55;;
75098;SDS011;63685;47.374;8.498;2022-11-15T05:38:30;7.60;;;1.90;;
75098;SDS011;63685;47.374;8.498;2022-11-15T05:40:56;7.45;;;1.67;;
75098;SDS011;63685;47.374;8.498;2022-11-15T05:43:22;3.85;;;1.70;;
75098;SDS011;63685;47.374;8.498;2022-11-15T05:45:48;5.10;;;1.83;;
75098;SDS011;63685;47.374;8.498;2022-11-15T05:48:14;6.88;;;1.63;;
75098;SDS011;63685;47.374;8.498;2022-11-15T05:50:41;11.75;;;1.65;;
75098;SDS011;63685;47.374;8.498;2022-11-15T05:53:10;2.85;;;1.50;;
75098;SDS011;63685;47.374;8.498;2022-11-15T05:55:39;4.85;;;1.60;;
75098;SDS011;63685;47.374;8.498;2022-11-15T05:58:05;4.72;;;1.83;;
75098;SDS011;63685;47.374;8.498;2022-11-15T06:00:31;9.75;;;2.08;;
75098;SDS011;63685;47.374;8.498;2022-11-15T06:02:56;5.45;;;1.73;;
75098;SDS011;63685;47.374;8.498;2022-11-15T06:05:22;6.75;;;1.83;;
75098;SDS011;63685;47.374;8.498;2022-11-15T06:07:47;10.10;;;2.25;;
75098;SDS011;63685;47.374;8.498;2022-11-15T06:10:13;6.53;;;1.58;;
75098;SDS011;63685;47.374;8.498;2022-11-15T06:12:39;9.07;;;1.50;;
75098;SDS011;63685;47.374;8.498;2022-11-15T06:15:04;8.48;;;2.10;;
75098;SDS011;63685;47.374;8.498;2022-11-15T06:17:30;5.97;;;2.13;;
75098;SDS011;63685;47.374;8.498;2022-11-15T06:19:56;3.08;;;1.50;;
75098;SDS011;63685;47.374;8.498;2022-11-15T06:22:21;9.68;;;1.52;;
75098;SDS011;63685;47.374;8.498;2022-11-15T06:24:47;9.52;;;1.80;;
75098;SDS011;63685;47.374;8.498;2022-11-15T06:27:12;9.15;;;2.10;;
75098;SDS011;63685;47.374;8.498;2022-11-15T06:29:38;9.55;;;1.45;;
75098;SDS011;63685;47.374;8.498;2022-11-15T06:32:04;6.32;;;1.50;;
75098;SDS011;63685;47.374;8.498;2022-11-15T06:34:29;5.38;;;1.70;;
75098;SDS011;63685;47.374;8.498;2022-11-15T06:36:55;5.47;;;1.60;;
75098;SDS011;63685;47.374;8.498;2022-11-15T06:39:20;5.68;;;1.55;;
75098;SDS011;63685;47.374;8.498;2022-11-15T06:41:46;8.13;;;2.53;;
75098;SDS011;63685;47.374;8.498;2022-11-15T06:44:11;6.20;;;1.95;;
75098;SDS011;63685;47.374;8.498;2022-11-15T06:46:37;8.98;;;2.05;;
75098;SDS011;63685;47.374;8.498;2022-11-15T06:49:03;21.65;;;3.92;;
75098;SDS011;63685;47.374;8.498;2022-11-15T06:51:28;10.88;;;2.40;;
75098;SDS011;63685;47.374;8.498;2022-11-15T06:53:54;7.85;;;2.15;;
75098;SDS011;63685;47.374;8.498;2022-11-15T06:56:19;8.68;;;2.40;;
75098;SDS011;63685;47.374;8.498;2022-11-15T06:58:45;6.03;;;1.90;;
75098;SDS011;63685;47.374;8.498;2022-11-15T07:01:11;5.38;;;2.05;;
75098;SDS011;63685;47.374;8.498;2022-11-15T07:03:37;21.73;;;6.10;;
75098;SDS011;63685;47.374;8.498;2022-11-15T07:06:06;20.58;;;5.95;;
75098;SDS011;63685;47.374;8.498;2022-11-15T07:08:32;25.52;;;6.85;;
75098;SDS011;63685;47.374;8.498;2022-11-15T07:10:58;23.85;;;6.30;;
75098;SDS011;63685;47.374;8.498;2022-11-15T07:13:26;21.80;;;5.20;;
75098;SDS011;63685;47.374;8.498;2022-11-15T07:15:52;11.77;;;4.63;;
75098;SDS011;63685;47.374;8.498;2022-11-15T07:18:17;14.38;;;4.35;;
75098;SDS011;63685;47.374;8.498;2022-11-15T07:20:43;13.32;;;4.07;;
75098;SDS011;63685;47.374;8.498;2022-11-15T07:23:09;15.32;;;4.28;;
75098;SDS011;63685;47.374;8.498;2022-11-15T07:25:35;11.57;;;4.22;;
75098;SDS011;63685;47.374;8.498;2022-11-15T07:28:01;11.07;;;4.07;;
75098;SDS011;63685;47.374;8.498;2022-11-15T07:30:27;23.52;;;4.85;;
75098;SDS011;63685;47.374;8.498;2022-11-15T07:33:00;12.40;;;4.13;;
75098;SDS011;63685;47.374;8.498;2022-11-15T07:35:26;13.80;;;4.25;;
75098;SDS011;63685;47.374;8.498;2022-11-15T07:37:56;12.68;;;4.15;;
75098;SDS011;63685;47.374;8.498;2022-11-15T07:40:26;17.42;;;3.60;;
75098;SDS011;63685;47.374;8.498;2022-11-15T07:42:58;11.48;;;3.80;;
75098;SDS011;63685;47.374;8.498;2022-11-15T07:45:28;11.23;;;3.50;;
75098;SDS011;63685;47.374;8.498;2022-11-15T07:47:55;11.15;;;3.55;;
75098;SDS011;63685;47.374;8.498;2022-11-15T07:50:21;9.30;;;3.88;;
75098;SDS011;63685;47.374;8.498;2022-11-15T07:52:51;10.30;;;3.63;;
75098;SDS011;63685;47.374;8.498;2022-11-15T07:55:19;9.13;;;3.83;;
75098;SDS011;63685;47.374;8.498;2022-11-15T07:57:44;9.32;;;3.50;;
75098;SDS011;63685;47.374;8.498;2022-11-15T08:00:10;9.13;;;3.45;;
75098;SDS011;63685;47.374;8.498;2022-11-15T08:02:36;7.90;;;3.30;;
75098;SDS011;63685;47.374;8.498;2022-11-15T08:05:01;10.70;;;3.33;;
75098;SDS011;63685;47.374;8.498;2022-11-15T08:07:30;9.40;;;3.65;;
75098;SDS011;63685;47.374;8.498;2022-11-15T08:09:57;7.45;;;3.22;;
75098;SDS011;63685;47.374;8.498;2022-11-15T08:12:23;9.73;;;3.53;;
75098;SDS011;63685;47.374;8.498;2022-11-15T08:14:49;6.85;;;3.22;;
75098;SDS011;63685;47.374;8.498;2022-11-15T08:17:14;7.30;;;3.47;;
75098;SDS011;63685;47.374;8.498;2022-11-15T08:19:40;10.75;;;3.33;;
75098;SDS011;63685;47.374;8.498;2022-11-15T08:22:06;10.85;;;3.50;;
75098;SDS011;63685;47.374;8.498;2022-11-15T08:24:32;10.30;;;3.10;;
75098;SDS011;63685;47.374;8.498;2022-11-15T08:26:58;6.80;;;2.90;;
75098;SDS011;63685;47.374;8.498;2022-11-15T08:29:25;9.30;;;3.17;;
75098;SDS011;63685;47.374;8.498;2022-11-15T08:31:51;6.93;;;2.85;;
75098;SDS011;63685;47.374;8.498;2022-11-15T08:34:19;7.32;;;2.88;;
75098;SDS011;63685;47.374;8.498;2022-11-15T08:36:44;8.45;;;3.13;;
75098;SDS011;63685;47.374;8.498;2022-11-15T08:39:11;10.55;;;3.03;;
75098;SDS011;63685;47.374;8.498;2022-11-15T08:41:37;7.60;;;2.70;;
75098;SDS011;63685;47.374;8.498;2022-11-15T08:44:03;6.82;;;2.78;;
75098;SDS011;63685;47.374;8.498;2022-11-15T08:46:29;7.32;;;2.83;;
75098;SDS011;63685;47.374;8.498;2022-11-15T08:48:54;6.78;;;2.85;;
75098;SDS011;63685;47.374;8.498;2022-11-15T08:51:20;8.15;;;2.80;;
75098;SDS011;63685;47.374;8.498;2022-11-15T08:53:46;5.63;;;2.70;;
75098;SDS011;63685;47.374;8.498;2022-11-15T08:56:12;8.65;;;3.25;;
75098;SDS011;63685;47.374;8.498;2022-11-15T08:58:38;5.22;;;2.75;;
75098;SDS011;63685;47.374;8.498;2022-11-15T09:01:04;6.32;;;2.45;;
75098;SDS011;63685;47.374;8.498;2022-11-15T09:03:30;6.15;;;3.15;;
75098;SDS011;63685;47.374;8.498;2022-11-15T09:05:59;5.47;;;2.88;;
75098;SDS011;63685;47.374;8.498;2022-11-15T09:08:28;6.07;;;2.92;;
75098;SDS011;63685;47.374;8.498;2022-11-15T09:10:55;6.53;;;2.85;;
75098;SDS011;63685;47.374;8.498;2022-11-15T09:13:20;5.60;;;2.58;;
75098;SDS011;63685;47.374;8.498;2022-11-15T09:15:46;5.47;;;2.63;;
75098;SDS011;63685;47.374;8.498;2022-11-15T09:18:12;7.68;;;2.75;;
75098;SDS011;63685;47.374;8.498;2022-11-15T09:20:37;6.78;;;2.75;;
75098;SDS011;63685;47.374;8.498;2022-11-15T09:23:04;7.95;;;3.13;;
75098;SDS011;63685;47.374;8.498;2022-11-15T09:25:30;6.28;;;2.75;;
75098;SDS011;63685;47.374;8.498;2022-11-15T09:27:55;7.50;;;2.63;;
75098;SDS011;63685;47.374;8.498;2022-11-15T09:30:21;5.05;;;2.35;;
75098;SDS011;63685;47.374;8.498;2022-11-15T09:32:47;6.57;;;3.05;;
75098;SDS011;63685;47.374;8.498;2022-11-15T09:35:13;5.78;;;2.78;;
75098;SDS011;63685;47.374;8.498;2022-11-15T09:37:38;5.82;;;2.72;;
75098;SDS011;63685;47.374;8.498;2022-11-15T09:40:04;5.63;;;2.80;;
75098;SDS011;63685;47.374;8.498;2022-11-15T09:45:26;5.53;;;2.60;;
75098;SDS011;63685;47.374;8.498;2022-11-15T09:48:50;6.10;;;2.28;;
75098;SDS011;63685;47.374;8.498;2022-11-15T09:51:08;6.50;;;2.47;;
75098;SDS011;63685;47.374;8.498;2022-11-15T09:56:29;6.07;;;2.50;;
75098;SDS011;63685;47.374;8.498;2022-11-15T09:59:02;7.70;;;2.70;;
75098;SDS011;63685;47.374;8.498;2022-11-15T10:04:42;6.40;;;2.67;;
75098;SDS011;63685;47.374;8.498;2022-11-15T10:12:24;6.05;;;2.63;;
75098;SDS011;63685;47.374;8.498;2022-11-15T10:15:00;5.35;;;2.50;;
75098;SDS011;63685;47.374;8.498;2022-11-15T10:22:50;4.32;;;2.53;;
75098;SDS011;63685;47.374;8.498;2022-11-15T10:30:37;5.40;;;2.50;;
75098;SDS011;63685;47.374;8.498;2022-11-15T10:33:16;5.30;;;2.55;;
75098;SDS011;63685;47.374;8.498;2022-11-15T10:35:55;6.25;;;2.78;;
75098;SDS011;63685;47.374;8.498;2022-11-15T10:43:44;4.80;;;2.28;;
75098;SDS011;63685;47.374;8.498;2022-11-15T10:46:20;4.93;;;2.35;;
75098;SDS011;63685;47.374;8.498;2022-11-15T10:48:47;4.75;;;2.25;;
75098;SDS011;63685;47.374;8.498;2022-11-15T10:51:23;3.72;;;2.15;;
75098;SDS011;63685;47.374;8.498;2022-11-15T10:53:53;5.95;;;2.38;;
75098;SDS011;63685;47.374;8.498;2022-11-15T10:56:22;6.03;;;2.25;;
75098;SDS011;63685;47.374;8.498;2022-11-15T10:58:52;4.82;;;2.20;;
75098;SDS011;63685;47.374;8.498;2022-11-15T11:01:24;5.63;;;2.60;;
75098;SDS011;63685;47.374;8.498;2022-11-15T11:06:27;5.85;;;2.30;;
75098;SDS011;63685;47.374;8.498;2022-11-15T11:08:57;6.55;;;2.67;;
75098;SDS011;63685;47.374;8.498;2022-11-15T11:11:50;4.80;;;2.40;;
75098;SDS011;63685;47.374;8.498;2022-11-15T11:14:26;4.38;;;2.35;;
75098;SDS011;63685;47.374;8.498;2022-11-15T11:22:17;3.65;;;2.33;;
75098;SDS011;63685;47.374;8.498;2022-11-15T11:25:11;4.78;;;2.30;;
75098;SDS011;63685;47.374;8.498;2022-11-15T11:27:57;4.88;;;2.15;;
75098;SDS011;63685;47.374;8.498;2022-11-15T11:30:32;4.57;;;2.25;;
75098;SDS011;63685;47.374;8.498;2022-11-15T11:33:09;7.13;;;2.30;;
75098;SDS011;63685;47.374;8.498;2022-11-15T11:43:49;4.90;;;2.22;;
75098;SDS011;63685;47.374;8.498;2022-11-15T11:46:38;5.80;;;2.42;;
75098;SDS011;63685;47.374;8.498;2022-11-15T11:52:12;4.45;;;2.20;;
75098;SDS011;63685;47.374;8.498;2022-11-15T11:54:58;4.47;;;2.28;;
75098;SDS011;63685;47.374;8.498;2022-11-15T11:57:39;3.58;;;2.10;;
75098;SDS011;63685;47.374;8.498;2022-11-15T12:00:22;3.92;;;2.28;;
75098;SDS011;63685;47.374;8.498;2022-11-15T12:05:28;4.03;;;2.30;;
75098;SDS011;63685;47.374;8.498;2022-11-15T12:10:59;4.50;;;2.05;;
75098;SDS011;63685;47.374;8.498;2022-11-15T12:13:36;4.15;;;2.30;;
75098;SDS011;63685;47.374;8.498;2022-11-15T12:16:05;4.95;;;2.30;;
75098;SDS011;63685;47.374;8.498;2022-11-15T12:18:36;4.43;;;2.50;;
75098;SDS011;63685;47.374;8.498;2022-11-15T12:21:04;4.85;;;2.45;;
75098;SDS011;63685;47.374;8.498;2022-11-15T12:23:44;5.07;;;2.20;;
75098;SDS011;63685;47.374;8.498;2022-11-15T12:26:18;3.13;;;2.00;;
75098;SDS011;63685;47.374;8.498;2022-11-15T12:28:53;5.10;;;2.17;;
75098;SDS011;63685;47.374;8.498;2022-11-15T12:31:35;3.85;;;2.15;;
75098;SDS011;63685;47.374;8.498;2022-11-15T12:36:41;3.78;;;2.00;;
75098;SDS011;63685;47.374;8.498;2022-11-15T12:39:09;3.35;;;1.90;;
75098;SDS011;63685;47.374;8.498;2022-11-15T12:41:40;3.95;;;1.90;;
75098;SDS011;63685;47.374;8.498;2022-11-15T12:44:11;2.85;;;1.70;;
75098;SDS011;63685;47.374;8.498;2022-11-15T13:02:25;4.07;;;2.28;;
75098;SDS011;63685;47.374;8.498;2022-11-15T13:17:38;3.20;;;1.95;;
75098;SDS011;63685;47.374;8.498;2022-11-15T13:22:38;3.75;;;2.00;;
75098;SDS011;63685;47.374;8.498;2022-11-15T13:27:52;3.20;;;2.05;;
75098;SDS011;63685;47.374;8.498;2022-11-15T13:30:21;3.97;;;2.08;;
75098;SDS011;63685;47.374;8.498;2022-11-15T13:32:48;3.83;;;2.00;;
75098;SDS011;63685;47.374;8.498;2022-11-15T13:35:23;2.90;;;1.63;;
75098;SDS011;63685;47.374;8.498;2022-11-15T13:37:50;2.92;;;1.52;;
75098;SDS011;63685;47.374;8.498;2022-11-15T13:40:25;4.10;;;1.80;;
75098;SDS011;63685;47.374;8.498;2022-11-15T13:42:58;3.25;;;1.80;;
75098;SDS011;63685;47.374;8.498;2022-11-15T13:45:24;2.85;;;1.70;;
75098;SDS011;63685;47.374;8.498;2022-11-15T13:47:55;3.08;;;1.67;;
75098;SDS011;63685;47.374;8.498;2022-11-15T13:50:23;3.17;;;1.75;;
75098;SDS011;63685;47.374;8.498;2022-11-15T13:52:52;3.13;;;1.70;;
75098;SDS011;63685;47.374;8.498;2022-11-15T13:55:22;3.10;;;1.70;;
75098;SDS011;63685;47.374;8.498;2022-11-15T13:57:50;4.80;;;1.95;;
75098;SDS011;63685;47.374;8.498;2022-11-15T14:00:28;3.00;;;1.70;;
75098;SDS011;63685;47.374;8.498;2022-11-15T14:03:04;5.38;;;1.70;;
75098;SDS011;63685;47.374;8.498;2022-11-15T14:05:45;3.78;;;1.88;;
75098;SDS011;63685;47.374;8.498;2022-11-15T14:08:27;2.65;;;1.67;;
75098;SDS011;63685;47.374;8.498;2022-11-15T14:13:39;3.38;;;1.80;;
75098;SDS011;63685;47.374;8.498;2022-11-15T14:16:15;3.17;;;1.70;;
75098;SDS011;63685;47.374;8.498;2022-11-15T14:18:44;3.83;;;2.10;;
75098;SDS011;63685;47.374;8.498;2022-11-15T14:21:15;2.92;;;1.60;;
75098;SDS011;63685;47.374;8.498;2022-11-15T14:23:41;4.40;;;1.98;;
75098;SDS011;63685;47.374;8.498;2022-11-15T14:26:11;3.00;;;1.50;;
75098;SDS011;63685;47.374;8.498;2022-11-15T14:28:52;2.97;;;1.65;;
75098;SDS011;63685;47.374;8.498;2022-11-15T14:31:17;3.42;;;1.65;;
75098;SDS011;63685;47.374;8.498;2022-11-15T14:33:45;3.30;;;1.80;;
75098;SDS011;63685;47.374;8.498;2022-11-15T14:36:15;3.50;;;1.95;;
75098;SDS011;63685;47.374;8.498;2022-11-15T14:38:42;3.42;;;1.70;;
75098;SDS011;63685;47.374;8.498;2022-11-15T14:41:17;2.25;;;1.50;;
75098;SDS011;63685;47.374;8.498;2022-11-15T14:43:45;2.58;;;1.50;;
75098;SDS011;63685;47.374;8.498;2022-11-15T14:46:10;2.58;;;1.50;;
75098;SDS011;63685;47.374;8.498;2022-11-15T14:48:36;3.03;;;2.03;;
75098;SDS011;63685;47.374;8.498;2022-11-15T14:51:01;2.25;;;1.52;;
75098;SDS011;63685;47.374;8.498;2022-11-15T14:53:27;2.92;;;1.50;;
75098;SDS011;63685;47.374;8.498;2022-11-15T14:55:53;3.22;;;1.77;;
75098;SDS011;63685;47.374;8.498;2022-11-15T14:58:18;3.38;;;1.70;;
75098;SDS011;63685;47.374;8.498;2022-11-15T15:00:44;3.25;;;1.65;;
75098;SDS011;63685;47.374;8.498;2022-11-15T15:03:09;2.60;;;1.30;;
75098;SDS011;63685;47.374;8.498;2022-11-15T15:05:40;3.25;;;1.70;;
75098;SDS011;63685;47.374;8.498;2022-11-15T15:08:07;2.42;;;1.45;;
75098;SDS011;63685;47.374;8.498;2022-11-15T15:10:34;2.70;;;1.63;;
75098;SDS011;63685;47.374;8.498;2022-11-15T15:13:29;2.85;;;1.50;;
75098;SDS011;63685;47.374;8.498;2022-11-15T15:15:55;2.92;;;1.50;;
75098;SDS011;63685;47.374;8.498;2022-11-15T15:18:20;3.08;;;1.67;;
75098;SDS011;63685;47.374;8.498;2022-11-15T15:20:47;4.47;;;1.95;;
75098;SDS011;63685;47.374;8.498;2022-11-15T15:23:20;8.30;;;2.00;;
75098;SDS011;63685;47.374;8.498;2022-11-15T15:25:46;4.20;;;1.80;;
75098;SDS011;63685;47.374;8.498;2022-11-15T15:28:14;3.22;;;1.75;;
75098;SDS011;63685;47.374;8.498;2022-11-15T15:30:40;4.82;;;1.98;;
75098;SDS011;63685;47.374;8.498;2022-11-15T15:33:06;4.22;;;1.70;;
75098;SDS011;63685;47.374;8.498;2022-11-15T15:35:32;3.97;;;1.90;;
75098;SDS011;63685;47.374;8.498;2022-11-15T15:37:59;5.22;;;1.75;;
75098;SDS011;63685;47.374;8.498;2022-11-15T15:40:25;5.93;;;2.00;;
75098;SDS011;63685;47.374;8.498;2022-11-15T15:42:53;2.97;;;1.48;;
75098;SDS011;63685;47.374;8.498;2022-11-15T15:45:19;3.40;;;1.90;;
75098;SDS011;63685;47.374;8.498;2022-11-15T15:47:45;3.97;;;1.75;;
75098;SDS011;63685;47.374;8.498;2022-11-15T15:52:42;3.00;;;1.95;;
75098;SDS011;63685;47.374;8.498;2022-11-15T15:55:08;2.80;;;1.60;;
75098;SDS011;63685;47.374;8.498;2022-11-15T15:57:33;5.03;;;1.60;;
75098;SDS011;63685;47.374;8.498;2022-11-15T15:59:59;3.08;;;1.70;;
75098;SDS011;63685;47.374;8.498;2022-11-15T16:02:24;5.15;;;1.75;;
75098;SDS011;63685;47.374;8.498;2022-11-15T16:04:50;4.47;;;1.80;;
75098;SDS011;63685;47.374;8.498;2022-11-15T16:07:17;6.05;;;1.90;;
75098;SDS011;63685;47.374;8.498;2022-11-15T16:09:46;7.10;;;2.03;;
75098;SDS011;63685;47.374;8.498;2022-11-15T16:12:24;10.38;;;2.33;;
75098;SDS011;63685;47.374;8.498;2022-11-15T16:14:50;3.90;;;1.83;;
75098;SDS011;63685;47.374;8.498;2022-11-15T16:17:23;6.10;;;1.95;;
75098;SDS011;63685;47.374;8.498;2022-11-15T16:19:51;7.13;;;1.90;;
75098;SDS011;63685;47.374;8.498;2022-11-15T16:22:17;4.15;;;1.60;;
75098;SDS011;63685;47.374;8.498;2022-11-15T16:24:42;4.95;;;1.77;;
75098;SDS011;63685;47.374;8.498;2022-11-15T16:27:15;5.05;;;1.80;;
75098;SDS011;63685;47.374;8.498;2022-11-15T16:29:43;5.60;;;1.60;;
75098;SDS011;63685;47.374;8.498;2022-11-15T16:32:09;6.00;;;1.77;;
75098;SDS011;63685;47.374;8.498;2022-11-15T16:34:35;6.18;;;1.88;;
75098;SDS011;63685;47.374;8.498;2022-11-15T16:37:00;5.20;;;1.40;;
75098;SDS011;63685;47.374;8.498;2022-11-15T16:39:26;6.53;;;1.63;;
75098;SDS011;63685;47.374;8.498;2022-11-15T16:41:54;4.55;;;1.58;;
75098;SDS011;63685;47.374;8.498;2022-11-15T16:44:21;5.32;;;1.70;;
75098;SDS011;63685;47.374;8.498;2022-11-15T16:46:47;4.78;;;1.70;;
75098;SDS011;63685;47.374;8.498;2022-11-15T16:49:16;8.98;;;1.70;;
75098;SDS011;63685;47.374;8.498;2022-11-15T16:51:44;4.22;;;1.73;;
75098;SDS011;63685;47.374;8.498;2022-11-15T16:54:11;3.85;;;1.73;;
75098;SDS011;63685;47.374;8.498;2022-11-15T16:56:37;3.13;;;1.73;;
75098;SDS011;63685;47.374;8.498;2022-11-15T16:59:03;2.85;;;1.60;;
75098;SDS011;63685;47.374;8.498;2022-11-15T17:01:31;8.40;;;2.00;;
75098;SDS011;63685;47.374;8.498;2022-11-15T17:03:59;2.88;;;1.60;;
75098;SDS011;63685;47.374;8.498;2022-11-15T17:06:36;6.05;;;1.90;;